Time;durP1;ratioP1;P1;durP2;ratioP2;P2;SDS_P1;SDS_P2;PMS_P1;PMS_P2;Temp;Humidity;BMP_temperature;BMP_pressure;BME280_temperature;BME280_humidity;BME280_pressure;Samples;Min_cycle;Max_cycle;Signal;HPM_P1;HPM_P2
2024/04/10 00:01:44;;;;;;;3.60;2.60;;;;;;;19.84;44.18;101820.39;109582;1271;1002882;-55
2024/04/10 00:04:11;;;;;;;5.20;2.90;;;;;;;19.83;43.98;101819.36;110609;1252;22694;-55
2024/04/10 00:06:38;;;;;;;4.00;2.80;;;;;;;19.82;43.82;101822.40;110600;1253;22156;-56
2024/04/10 00:09:05;;;;;;;3.10;2.80;;;;;;;19.83;43.73;101820.77;110562;1263;22190;-55
2024/04/10 00:11:32;;;;;;;3.50;2.50;;;;;;;19.82;43.68;101819.42;110592;1263;22357;-55
2024/04/10 00:13:58;;;;;;;3.20;2.60;;;;;;;19.82;43.85;101821.02;110628;1259;22297;-55
2024/04/10 00:16:26;;;;;;;3.10;2.90;;;;;;;19.79;44.25;101816.93;110628;1252;22144;-55
2024/04/10 00:18:52;;;;;;;4.90;3.00;;;;;;;19.76;44.44;101817.42;110623;1259;22275;-56
2024/04/10 00:21:19;;;;;;;3.80;2.90;;;;;;;19.72;44.59;101810.71;110598;1252;22316;-55
2024/04/10 00:23:46;;;;;;;6.60;3.00;;;;;;;19.73;44.51;101805.21;110425;1262;22272;-55
2024/04/10 00:26:13;;;;;;;3.50;3.10;;;;;;;19.75;44.63;101801.41;110599;1253;22300;-55
2024/04/10 00:28:40;;;;;;;5.40;3.20;;;;;;;19.75;45.09;101800.20;110642;1264;23303;-55
2024/04/10 00:31:07;;;;;;;4.00;3.60;;;;;;;19.77;45.67;101794.84;110626;1256;22106;-55
2024/04/10 00:33:38;;;;;;;4.60;3.60;;;;;;;19.79;46.24;101797.02;110614;1253;22554;-55
2024/04/10 00:36:05;;;;;;;5.40;3.40;;;;;;;19.81;46.60;101800.11;110597;1259;23176;-55
2024/04/10 00:38:32;;;;;;;5.00;3.40;;;;;;;19.85;46.62;101798.16;110670;1263;22155;-56
2024/04/10 00:41:01;;;;;;;6.00;3.50;;;;;;;19.89;46.55;101800.80;110498;1266;23201;-55
2024/04/10 00:43:29;;;;;;;4.00;3.60;;;;;;;19.94;46.40;101804.63;110620;1263;22422;-55
2024/04/10 00:46:17;;;;;;;4.00;3.60;;;;;;;19.94;46.43;101804.80;110585;1255;22473;-55
2024/04/10 00:48:44;;;;;;;4.50;3.40;;;;;;;19.97;46.15;101804.15;110506;1258;22274;-55
2024/04/10 00:51:32;;;;;;;5.40;3.20;;;;;;;20.00;45.49;101796.61;110602;1253;22133;-55
2024/04/10 00:53:59;;;;;;;4.30;3.50;;;;;;;20.02;44.79;101797.40;110656;1256;22388;-55
2024/04/10 00:56:25;;;;;;;4.70;3.30;;;;;;;19.99;44.52;101798.43;110401;1258;22326;-55
2024/04/10 00:58:54;;;;;;;6.50;3.20;;;;;;;19.95;44.15;101796.80;110629;1253;22433;-56
2024/04/10 01:01:21;;;;;;;4.40;3.60;;;;;;;19.93;43.96;101795.67;110514;1266;22474;-56
2024/04/10 01:03:49;;;;;;;5.70;3.90;;;;;;;19.91;43.97;101793.32;110348;1256;22162;-55
2024/04/10 01:06:16;;;;;;;4.90;3.50;;;;;;;19.88;43.97;101793.45;110416;1269;22436;-55
2024/04/10 01:08:43;;;;;;;4.80;3.50;;;;;;;19.89;43.92;101784.75;110562;1252;22514;-56
2024/04/10 01:11:10;;;;;;;6.60;3.20;;;;;;;19.90;43.95;101786.13;110573;1255;22125;-55
2024/04/10 01:13:37;;;;;;;8.00;3.70;;;;;;;19.88;44.12;101784.30;110072;1267;22131;-56
2024/04/10 01:16:05;;;;;;;10.30;3.80;;;;;;;19.86;44.39;101782.10;110630;1257;22195;-55
2024/04/10 01:18:32;;;;;;;6.50;3.30;;;;;;;19.83;44.46;101778.51;110651;1252;22227;-55
2024/04/10 01:20:59;;;;;;;5.10;3.60;;;;;;;19.83;44.60;101775.36;110617;1256;22280;-55
2024/04/10 01:23:26;;;;;;;8.70;3.80;;;;;;;19.82;44.90;101774.36;110591;1256;22433;-55
2024/04/10 01:25:53;;;;;;;6.20;3.60;;;;;;;19.82;45.00;101777.35;110626;1259;22228;-55
2024/04/10 01:28:19;;;;;;;3.80;3.50;;;;;;;19.85;44.89;101774.92;110654;1252;22110;-55
2024/04/10 01:30:46;;;;;;;4.60;3.70;;;;;;;19.86;44.94;101778.40;110432;1256;22335;-55
2024/04/10 01:33:13;;;;;;;8.00;4.30;;;;;;;19.85;45.08;101778.98;110633;1257;22096;-55
2024/04/10 01:35:40;;;;;;;4.90;3.90;;;;;;;19.83;45.34;101780.80;109845;1252;1002859;-55
2024/04/10 01:38:07;;;;;;;8.60;4.20;;;;;;;19.76;45.70;101781.64;110503;1262;22452;-55
2024/04/10 01:40:35;;;;;;;6.90;4.70;;;;;;;19.74;45.85;101780.88;110572;1256;22440;-56
2024/04/10 01:43:01;;;;;;;7.70;4.50;;;;;;;19.72;46.10;101779.02;110612;1259;22276;-56
2024/04/10 01:45:28;;;;;;;6.40;4.70;;;;;;;19.74;46.36;101783.84;110640;1252;22390;-55
2024/04/10 01:47:55;;;;;;;7.50;4.60;;;;;;;19.72;46.78;101781.48;110609;1256;22375;-55
2024/04/10 01:50:22;;;;;;;7.10;4.80;;;;;;;19.71;47.13;101783.98;110645;1251;22901;-55
2024/04/10 01:52:49;;;;;;;11.10;4.70;;;;;;;19.70;47.46;101791.77;110577;1256;22285;-56
2024/04/10 01:55:17;;;;;;;5.50;4.60;;;;;;;19.69;47.65;101791.30;110271;1265;22111;-56
2024/04/10 01:57:44;;;;;;;7.90;5.00;;;;;;;19.70;48.00;101798.11;110594;1255;22964;-55
2024/04/10 02:00:11;;;;;;;8.50;5.10;;;;;;;19.74;48.28;101798.83;110631;1256;22118;-55
2024/04/10 02:02:39;;;;;;;8.60;5.70;;;;;;;19.76;48.58;101795.40;110526;1265;22308;-55
2024/04/10 02:05:06;;;;;;;10.10;5.50;;;;;;;19.76;48.88;101793.80;110619;1256;22997;-55
2024/04/10 02:07:33;;;;;;;9.80;5.70;;;;;;;19.78;49.24;101791.42;110604;1255;22292;-56
2024/04/10 02:09:59;;;;;;;8.00;5.60;;;;;;;19.77;49.67;101793.39;110650;1259;22376;-55
2024/04/10 02:12:26;;;;;;;7.40;6.30;;;;;;;19.79;50.11;101798.41;110269;1265;22358;-57
2024/04/10 02:14:53;;;;;;;12.60;6.00;;;;;;;19.73;50.46;101805.70;110629;1257;22511;-56
2024/04/10 02:17:20;;;;;;;6.70;5.50;;;;;;;19.73;50.68;101819.13;110580;1252;22351;-55
2024/04/10 02:19:49;;;;;;;9.00;5.60;;;;;;;19.75;50.84;101831.87;110647;1253;22147;-55
2024/04/10 02:22:16;;;;;;;9.90;5.70;;;;;;;19.77;51.09;101833.36;110232;1258;22386;-56
2024/04/10 02:24:44;;;;;;;9.80;6.30;;;;;;;19.81;51.34;101841.46;110652;1255;22137;-55
2024/04/10 02:27:10;;;;;;;9.80;6.00;;;;;;;19.78;51.63;101841.61;110621;1253;22911;-55
2024/04/10 02:29:37;;;;;;;12.40;6.60;;;;;;;19.78;52.01;101842.86;110580;1267;22370;-55
2024/04/10 02:32:04;;;;;;;7.10;6.10;;;;;;;19.77;52.43;101844.11;110426;1265;22286;-56
2024/04/10 02:34:32;;;;;;;7.30;6.10;;;;;;;19.80;52.61;101841.36;110636;1253;22456;-55
2024/04/10 02:36:58;;;;;;;9.70;6.40;;;;;;;19.88;52.64;101839.23;110627;1252;23213;-55
2024/04/10 02:39:27;;;;;;;9.40;6.70;;;;;;;19.90;53.01;101838.27;110637;1251;22349;-56
2024/04/10 02:41:54;;;;;;;15.30;7.80;;;;;;;19.91;53.27;101843.52;110577;1256;22375;-58
2024/04/10 02:44:21;;;;;;;12.50;7.60;;;;;;;19.92;53.43;101844.17;110568;1262;22423;-58
2024/04/10 02:46:48;;;;;;;10.20;7.70;;;;;;;19.93;53.52;101846.92;110313;1259;22126;-55
2024/04/10 02:49:15;;;;;;;13.50;7.90;;;;;;;19.95;53.87;101849.13;110606;1252;23148;-55
2024/04/10 02:51:42;;;;;;;10.40;8.40;;;;;;;19.96;54.26;101851.20;110578;1272;22186;-55
2024/04/10 02:54:09;;;;;;;13.50;7.80;;;;;;;19.95;54.47;101854.78;110505;1256;22421;-56
2024/04/10 02:56:35;;;;;;;10.70;8.70;;;;;;;19.94;54.66;101859.73;110601;1252;22280;-56
2024/04/10 02:59:02;;;;;;;11.00;8.00;;;;;;;20.01;54.64;101859.63;110625;1256;23307;-56
2024/04/10 03:01:29;;;;;;;11.90;8.40;;;;;;;20.05;54.63;101862.79;110674;1259;23311;-57
2024/04/10 03:03:56;;;;;;;10.20;8.90;;;;;;;20.06;54.61;101868.04;110591;1256;22125;-57
2024/04/10 03:06:23;;;;;;;9.70;8.70;;;;;;;20.07;54.67;101873.45;110654;1256;23135;-58
2024/04/10 03:08:50;;;;;;;12.20;8.50;;;;;;;20.07;54.70;101872.75;110433;1267;22403;-57
2024/04/10 03:11:18;;;;;;;13.30;8.10;;;;;;;20.07;54.81;101876.81;110628;1256;22095;-58
2024/04/10 03:13:45;;;;;;;11.70;9.10;;;;;;;20.07;54.84;101878.38;110627;1262;23010;-55
2024/04/10 03:16:12;;;;;;;11.50;8.60;;;;;;;20.06;55.01;101876.46;110602;1262;22435;-58
2024/04/10 03:18:39;;;;;;;9.90;8.80;;;;;;;20.06;55.07;101882.29;110565;1254;23068;-56
2024/04/10 03:21:06;;;;;;;16.00;8.40;;;;;;;20.06;55.01;101881.23;110674;1255;22399;-56
2024/04/10 03:23:33;;;;;;;7.90;7.10;;;;;;;20.06;54.91;101880.35;110578;1267;23035;-56
2024/04/10 03:26:04;;;;;;;8.50;7.40;;;;;;;20.05;55.07;101880.41;110616;1257;22142;-55
2024/04/10 03:28:33;;;;;;;10.90;7.00;;;;;;;20.03;55.07;101881.92;110669;1260;22155;-56
2024/04/10 03:31:03;;;;;;;14.00;6.10;;;;;;;20.01;55.00;101884.29;110598;1263;23168;-55
2024/04/10 03:33:30;;;;;;;7.10;5.80;;;;;;;19.98;55.05;101884.39;110394;1258;23261;-55
2024/04/10 03:35:57;;;;;;;6.90;5.70;;;;;;;19.95;55.11;101886.64;110610;1262;22495;-58
2024/04/10 03:38:24;;;;;;;9.70;5.70;;;;;;;19.96;55.02;101886.42;110608;1258;22332;-55
2024/04/10 03:40:52;;;;;;;7.60;5.80;;;;;;;19.96;54.94;101887.14;110648;1255;23132;-56
2024/04/10 03:43:18;;;;;;;9.00;5.60;;;;;;;19.95;54.93;101886.45;110643;1254;22385;-55
2024/04/10 03:45:47;;;;;;;10.70;6.00;;;;;;;19.97;54.80;101887.27;110424;1258;22831;-55
2024/04/10 03:48:14;;;;;;;7.10;6.30;;;;;;;20.00;54.68;101890.16;110653;1256;22126;-55
2024/04/10 03:50:42;;;;;;;7.20;5.20;;;;;;;20.01;54.64;101890.42;110638;1256;22387;-55
2024/04/10 03:53:09;;;;;;;8.20;4.90;;;;;;;20.04;54.56;101890.15;110581;1263;22248;-56
2024/04/10 03:55:36;;;;;;;8.70;4.90;;;;;;;20.05;54.42;101898.40;110611;1256;22140;-55
2024/04/10 03:58:03;;;;;;;5.90;4.30;;;;;;;20.06;54.35;101897.95;110623;1256;22361;-56
2024/04/10 04:00:30;;;;;;;5.70;4.50;;;;;;;20.09;54.18;101896.95;110624;1262;22182;-56
2024/04/10 04:02:57;;;;;;;4.30;3.90;;;;;;;20.12;54.07;101895.02;110652;1254;23017;-56
2024/04/10 04:05:24;;;;;;;5.50;3.70;;;;;;;20.16;53.85;101895.79;110644;1256;22377;-56
2024/04/10 04:07:51;;;;;;;3.80;3.40;;;;;;;20.19;53.73;101897.95;110687;1256;23245;-55
2024/04/10 04:10:18;;;;;;;3.80;3.40;;;;;;;20.21;53.63;101897.34;110631;1256;22197;-56
2024/04/10 04:12:45;;;;;;;3.40;3.00;;;;;;;20.24;53.44;101903.17;110581;1254;22509;-55
2024/04/10 04:15:12;;;;;;;4.50;3.00;;;;;;;20.28;53.05;101909.20;110274;1274;23012;-55
2024/04/10 04:17:39;;;;;;;3.00;2.80;;;;;;;20.31;52.82;101907.33;110604;1255;22376;-55
2024/04/10 04:20:08;;;;;;;3.20;2.60;;;;;;;20.32;52.60;101907.06;110657;1252;22091;-55
2024/04/10 04:22:35;;;;;;;5.10;2.70;;;;;;;20.35;52.42;101910.44;110397;1261;22283;-56
2024/04/10 04:25:02;;;;;;;3.10;2.60;;;;;;;20.40;52.19;101911.84;110617;1256;22371;-56
2024/04/10 04:27:32;;;;;;;2.70;2.50;;;;;;;20.44;51.98;101909.71;110408;1266;22399;-56
2024/04/10 04:29:59;;;;;;;4.60;2.40;;;;;;;20.48;51.64;101912.73;110602;1266;22448;-55
2024/04/10 04:32:26;;;;;;;3.00;2.30;;;;;;;20.51;51.47;101911.55;110678;1256;22468;-55
2024/04/10 04:34:54;;;;;;;3.40;2.50;;;;;;;20.52;51.00;101913.58;110617;1262;22447;-56
2024/04/10 04:37:21;;;;;;;2.50;2.30;;;;;;;20.56;50.51;101914.10;110395;1258;22203;-55
2024/04/10 04:39:48;;;;;;;4.30;2.20;;;;;;;20.61;50.05;101915.66;110622;1256;22425;-56
2024/04/10 04:42:15;;;;;;;3.00;2.30;;;;;;;20.64;49.51;101915.68;110640;1255;22280;-55
2024/04/10 04:44:42;;;;;;;2.70;2.00;;;;;;;20.66;48.79;101916.29;110636;1256;22104;-56
2024/04/10 04:47:09;;;;;;;3.00;2.30;;;;;;;20.69;48.13;101916.52;109888;1264;1002650;-55
2024/04/10 04:49:36;;;;;;;5.80;2.40;;;;;;;20.66;47.81;101911.20;110627;1268;22364;-55
2024/04/10 04:52:04;;;;;;;2.40;2.20;;;;;;;20.64;47.41;101915.17;110598;1262;22293;-56
2024/04/10 04:54:32;;;;;;;2.70;2.00;;;;;;;20.66;46.35;101913.14;110394;1259;22366;-55
2024/04/10 04:56:58;;;;;;;3.70;1.70;;;;;;;20.68;45.58;101921.30;110636;1265;22160;-55
2024/04/10 04:59:25;;;;;;;2.50;1.80;;;;;;;20.74;44.49;101922.63;110608;1264;22105;-56
2024/04/10 05:01:53;;;;;;;2.90;1.90;;;;;;;20.78;44.10;101919.80;110321;1265;22340;-56
2024/04/10 05:07:06;;;;;;;4.10;1.70;;;;;;;20.85;43.48;101922.30;110599;1266;22420;-55
2024/04/10 05:09:32;;;;;;;3.40;1.60;;;;;;;20.85;43.75;101924.77;110569;1274;22432;-56
2024/04/10 05:11:59;;;;;;;2.20;1.60;;;;;;;20.91;43.89;101926.23;110606;1269;22124;-56
2024/04/10 05:14:30;;;;;;;1.80;1.60;;;;;;;20.92;44.09;101926.20;110569;1274;22159;-55
2024/04/10 05:16:57;;;;;;;2.20;1.90;;;;;;;20.97;44.24;101925.80;110570;1271;22234;-56
2024/04/10 05:19:25;;;;;;;2.40;1.40;;;;;;;21.01;44.53;101924.90;110593;1270;22402;-55
2024/04/10 05:21:52;;;;;;;2.60;2.00;;;;;;;21.05;44.73;101928.26;110623;1266;22122;-56
2024/04/10 05:24:23;;;;;;;2.60;1.70;;;;;;;21.15;45.12;101929.23;110307;1271;22161;-56
2024/04/10 05:26:50;;;;;;;4.40;1.90;;;;;;;21.19;45.93;101929.91;110279;1272;22597;-56
2024/04/10 05:29:17;;;;;;;2.30;2.10;;;;;;;21.25;46.76;101933.17;110577;1272;22224;-56
2024/04/10 05:31:44;;;;;;;2.60;1.90;;;;;;;21.32;47.55;101932.33;110268;1274;22969;-56
2024/04/10 05:34:11;;;;;;;2.80;2.20;;;;;;;21.38;48.27;101937.98;110576;1269;22434;-56
2024/04/10 05:36:38;;;;;;;2.50;1.90;;;;;;;21.48;48.72;101940.00;110367;1268;22955;-56
2024/04/10 05:39:05;;;;;;;3.00;2.30;;;;;;;21.53;49.20;101944.48;110549;1271;22373;-56
2024/04/10 05:41:33;;;;;;;3.60;2.30;;;;;;;21.50;49.65;101946.95;110552;1269;22116;-56
2024/04/10 05:44:00;;;;;;;2.90;2.30;;;;;;;21.54;49.90;101947.11;110564;1271;22344;-56
2024/04/10 05:46:27;;;;;;;3.90;2.60;;;;;;;21.63;50.17;101952.84;110637;1266;23103;-56
2024/04/10 05:48:54;;;;;;;3.40;2.60;;;;;;;21.76;50.48;101959.25;110580;1271;22343;-56
2024/04/10 05:51:21;;;;;;;3.40;3.10;;;;;;;21.97;50.63;101962.15;110550;1274;22597;-56
2024/04/10 05:53:48;;;;;;;5.10;4.00;;;;;;;22.22;50.60;101964.04;110613;1270;23192;-56
2024/04/10 05:56:16;;;;;;;4.00;3.60;;;;;;;22.47;50.37;101968.52;110208;1275;22116;-56
2024/04/10 05:58:43;;;;;;;4.30;3.80;;;;;;;22.72;50.15;101968.65;110589;1268;22110;-56
2024/04/10 06:01:10;;;;;;;5.20;4.10;;;;;;;22.99;49.94;101966.86;110539;1267;23135;-56
2024/04/10 06:03:37;;;;;;;4.40;3.80;;;;;;;23.34;49.34;101966.31;110603;1267;22997;-57
2024/04/10 06:06:09;;;;;;;7.90;3.60;;;;;;;23.79;48.46;101963.92;110286;1267;22406;-57
2024/04/10 06:08:36;;;;;;;6.10;4.00;;;;;;;24.22;46.87;101963.16;110598;1267;22433;-56
2024/04/10 06:11:03;;;;;;;9.40;3.80;;;;;;;24.52;46.09;101967.92;110537;1272;22477;-57
2024/04/10 06:13:30;;;;;;;6.10;3.40;;;;;;;24.80;45.52;101965.17;110568;1272;22401;-57
2024/04/10 06:16:00;;;;;;;4.90;3.80;;;;;;;25.16;44.88;101965.49;110572;1274;22517;-57
2024/04/10 06:18:28;;;;;;;3.80;3.50;;;;;;;25.64;43.69;101966.33;110603;1266;22351;-56
2024/04/10 06:21:01;;;;;;;6.40;3.30;;;;;;;26.02;42.83;101968.95;110385;1271;22428;-57
2024/04/10 06:23:29;;;;;;;6.90;3.30;;;;;;;26.33;41.85;101965.77;110547;1274;22450;-57
2024/04/10 06:25:56;;;;;;;4.90;3.30;;;;;;;26.50;40.83;101970.60;110569;1269;22443;-56
2024/04/10 06:28:24;;;;;;;3.70;2.90;;;;;;;26.53;40.54;101968.98;110544;1272;23033;-56
2024/04/10 06:31:01;;;;;;;4.80;3.00;;;;;;;26.52;39.97;101968.69;110560;1274;22615;-56
2024/04/10 06:33:28;;;;;;;3.40;2.90;;;;;;;26.47;39.38;101967.26;110561;1268;23184;-57
2024/04/10 06:35:59;;;;;;;3.90;3.40;;;;;;;26.39;38.88;101964.08;110593;1272;22282;-56
2024/04/10 06:38:26;;;;;;;6.70;3.20;;;;;;;26.43;38.81;101961.16;110549;1274;22276;-56
2024/04/10 06:40:56;;;;;;;7.30;4.50;;;;;;;26.60;38.43;101960.00;110569;1271;22521;-56
2024/04/10 06:43:23;;;;;;;6.60;4.30;;;;;;;26.65;38.13;101958.33;110553;1274;22335;-57
2024/04/10 06:46:03;;;;;;;5.10;3.50;;;;;;;26.69;38.01;101960.07;110580;1274;22589;-56
2024/04/10 06:48:30;;;;;;;5.30;4.00;;;;;;;26.72;37.52;101956.84;110607;1269;22815;-56
2024/04/10 06:50:59;;;;;;;5.20;3.00;;;;;;;26.77;37.38;101953.82;110359;1274;22977;-57
2024/04/10 06:53:26;;;;;;;3.70;2.90;;;;;;;26.78;37.34;101953.77;110551;1271;22256;-56
2024/04/10 06:56:01;;;;;;;7.00;2.80;;;;;;;26.76;37.34;101952.94;110571;1266;22098;-57
2024/04/10 06:58:29;;;;;;;3.80;2.40;;;;;;;26.71;37.24;101951.94;110562;1268;22911;-56
2024/04/10 07:01:00;;;;;;;3.20;2.80;;;;;;;26.64;37.44;101957.86;110254;1266;22524;-57
2024/04/10 07:03:32;;;;;;;6.20;2.60;;;;;;;26.55;37.42;101956.42;110085;1274;22691;-56
2024/04/10 07:06:02;;;;;;;4.40;2.80;;;;;;;26.46;37.43;101955.65;110166;1276;22379;-57
2024/04/10 07:08:29;;;;;;;4.00;3.10;;;;;;;26.47;37.31;101951.96;110599;1268;22414;-56
2024/04/10 07:10:57;;;;;;;3.10;2.70;;;;;;;26.43;37.25;101954.42;110377;1273;22266;-56
2024/04/10 07:13:25;;;;;;;3.60;3.30;;;;;;;26.33;37.21;101954.41;110428;1273;23194;-56
2024/04/10 07:15:59;;;;;;;5.00;3.10;;;;;;;26.36;36.95;101951.33;109807;1271;1002958;-57
2024/04/10 07:18:28;;;;;;;4.30;2.60;;;;;;;26.37;36.58;101951.58;110383;1270;23001;-56
2024/04/10 07:21:02;;;;;;;2.80;2.50;;;;;;;26.35;36.01;101951.23;110409;1269;22162;-56
2024/04/10 07:23:29;;;;;;;3.70;2.80;;;;;;;26.37;35.72;101955.31;110529;1269;22352;-56
2024/04/10 07:26:09;;;;;;;4.70;2.90;;;;;;;26.39;35.81;101952.19;110606;1266;22921;-56
2024/04/10 07:28:36;;;;;;;6.30;3.30;;;;;;;26.57;35.48;101952.17;110553;1274;23162;-56
2024/04/10 07:31:04;;;;;;;5.10;2.90;;;;;;;26.63;34.78;101950.64;110572;1269;22388;-57
2024/04/10 07:33:31;;;;;;;4.20;2.70;;;;;;;26.61;33.76;101954.54;110577;1274;22472;-56
2024/04/10 07:35:58;;;;;;;3.70;2.90;;;;;;;26.59;33.03;101949.55;110549;1274;22405;-56
2024/04/10 07:38:24;;;;;;;3.10;2.80;;;;;;;26.45;33.00;101946.77;110272;1275;22288;-56
2024/04/10 07:40:55;;;;;;;3.80;3.30;;;;;;;26.29;32.97;101948.26;110211;1275;22998;-56
2024/04/10 07:43:22;;;;;;;3.60;3.10;;;;;;;26.12;33.02;101948.35;110594;1269;22126;-56
2024/04/10 07:45:49;;;;;;;4.30;2.80;;;;;;;25.99;32.89;101949.74;110549;1274;22356;-56
2024/04/10 07:48:17;;;;;;;3.50;3.10;;;;;;;25.87;32.85;101950.41;110561;1274;23150;-56
2024/04/10 07:50:44;;;;;;;4.20;2.60;;;;;;;25.70;32.95;101947.44;110576;1270;22110;-57
2024/04/10 07:53:12;;;;;;;3.70;3.00;;;;;;;25.73;32.66;101946.33;110539;1272;22294;-56
2024/04/10 07:55:39;;;;;;;3.00;2.40;;;;;;;25.68;32.41;101941.15;110410;1266;22138;-56
2024/04/10 07:58:09;;;;;;;2.10;1.90;;;;;;;25.62;32.03;101940.66;108264;1274;1002209;-56
2024/04/10 08:00:36;;;;;;;3.00;2.00;;;;;;;25.58;31.87;101938.64;110583;1267;22481;-56
2024/04/10 08:03:03;;;;;;;4.60;1.90;;;;;;;25.56;32.38;101937.20;110569;1271;22383;-56
2024/04/10 08:05:31;;;;;;;4.20;1.90;;;;;;;25.56;32.60;101938.08;110283;1274;22378;-56
2024/04/10 08:07:58;;;;;;;2.50;2.00;;;;;;;25.58;33.63;101938.49;110559;1271;22398;-56
2024/04/10 08:10:25;;;;;;;2.00;1.70;;;;;;;25.58;33.50;101937.25;110553;1271;22216;-56
2024/04/10 08:12:54;;;;;;;3.00;1.80;;;;;;;25.60;32.83;101935.47;110337;1271;22800;-56
2024/04/10 08:15:22;;;;;;;3.60;1.90;;;;;;;25.57;32.14;101933.00;110541;1267;22521;-56
2024/04/10 08:17:49;;;;;;;5.00;2.20;;;;;;;25.57;31.53;101928.94;110549;1267;22096;-56
2024/04/10 08:20:16;;;;;;;2.20;1.70;;;;;;;25.56;31.25;101923.83;110574;1274;22491;-56
2024/04/10 08:22:44;;;;;;;2.10;1.70;;;;;;;25.58;30.91;101923.52;110558;1272;23015;-56
2024/04/10 08:25:10;;;;;;;4.20;1.70;;;;;;;25.62;31.09;101921.88;110326;1274;23154;-56
2024/04/10 08:27:37;;;;;;;2.00;1.80;;;;;;;25.64;30.28;101920.10;110423;1274;22506;-56
2024/04/10 08:30:05;;;;;;;2.10;1.90;;;;;;;25.65;30.09;101918.99;110250;1267;22860;-56
2024/04/10 08:32:34;;;;;;;3.70;1.90;;;;;;;25.67;30.17;101921.33;110546;1274;22124;-56
2024/04/10 08:35:02;;;;;;;4.90;1.90;;;;;;;25.74;29.78;101920.52;110593;1269;23071;-56
2024/04/10 08:37:29;;;;;;;2.20;1.90;;;;;;;25.81;29.75;101921.77;110555;1271;22467;-56
2024/04/10 08:39:56;;;;;;;2.60;1.90;;;;;;;25.90;29.20;101919.45;110578;1268;22124;-56
2024/04/10 08:42:23;;;;;;;3.80;1.80;;;;;;;25.98;29.15;101920.86;110565;1269;22371;-56
2024/04/10 08:44:51;;;;;;;2.50;1.70;;;;;;;26.06;29.15;101922.10;110559;1269;22142;-56
2024/04/10 08:47:18;;;;;;;2.70;1.80;;;;;;;26.15;28.76;101920.10;110279;1274;22999;-56
2024/04/10 08:49:45;;;;;;;3.10;1.80;;;;;;;26.16;29.34;101919.83;110309;1271;23030;-56
2024/04/10 08:52:12;;;;;;;3.20;1.70;;;;;;;26.24;29.16;101922.27;110297;1274;22123;-56
2024/04/10 08:54:39;;;;;;;2.20;2.00;;;;;;;26.30;29.61;101920.05;110527;1272;22481;-57
2024/04/10 08:57:06;;;;;;;3.50;2.20;;;;;;;26.37;29.56;101921.92;110561;1274;22853;-56
2024/04/10 08:59:33;;;;;;;3.70;2.50;;;;;;;26.42;29.55;101924.93;110572;1275;22136;-57
2024/04/10 09:02:01;;;;;;;5.90;2.10;;;;;;;26.46;29.96;101927.34;110577;1267;22442;-56
2024/04/10 09:04:29;;;;;;;2.70;2.20;;;;;;;26.47;30.67;101930.42;110554;1267;22451;-56
2024/04/10 09:07:02;;;;;;;6.30;3.30;;;;;;;26.49;31.83;101934.92;110364;1267;22290;-57
2024/04/10 09:09:30;;;;;;;5.20;2.80;;;;;;;26.49;31.88;101938.47;110398;1275;22451;-56
2024/04/10 09:11:57;;;;;;;4.50;3.00;;;;;;;26.44;32.29;101938.32;110588;1270;22739;-56
2024/04/10 09:14:24;;;;;;;4.00;2.80;;;;;;;26.35;33.24;101933.41;108313;1266;1003007;-56
2024/04/10 09:16:51;;;;;;;4.90;2.80;;;;;;;26.26;33.30;101934.27;110316;1271;22465;-56
2024/04/10 09:19:18;;;;;;;4.30;3.20;;;;;;;26.13;33.68;101930.32;110565;1269;22108;-56
2024/04/10 09:21:56;;;;;;;4.10;2.80;;;;;;;26.01;33.75;101926.70;110581;1273;22894;-56
2024/04/10 09:24:25;;;;;;;3.00;2.70;;;;;;;25.92;33.37;101923.05;110525;1272;22401;-56
2024/04/10 09:26:51;;;;;;;4.40;3.00;;;;;;;25.86;32.98;101918.85;110542;1274;22521;-56
2024/04/10 09:29:30;;;;;;;5.70;2.70;;;;;;;25.82;33.42;101917.95;110179;1276;22183;-56
2024/04/10 09:32:04;;;;;;;3.50;3.10;;;;;;;25.84;33.69;101917.15;110283;1270;22164;-56
2024/04/10 09:34:31;;;;;;;5.20;3.20;;;;;;;25.86;33.82;101918.28;110279;1273;22431;-56
2024/04/10 09:37:00;;;;;;;9.50;4.00;;;;;;;25.85;34.65;101924.04;110282;1271;22352;-57
2024/04/10 09:39:27;;;;;;;4.80;4.00;;;;;;;25.87;35.27;101920.19;110305;1270;23410;-56
2024/04/10 09:41:58;;;;;;;3.90;3.30;;;;;;;25.87;35.20;101920.38;110316;1270;22376;-56
2024/04/10 09:44:31;;;;;;;3.40;3.10;;;;;;;25.86;35.52;101923.98;110081;1275;22441;-57
2024/04/10 09:46:59;;;;;;;5.30;3.30;;;;;;;25.86;35.57;101927.04;110275;1278;22346;-56
2024/04/10 09:49:42;;;;;;;4.40;3.70;;;;;;;25.82;35.22;101926.86;110273;1278;22334;-56
2024/04/10 09:52:10;;;;;;;7.70;3.60;;;;;;;25.77;34.99;101924.36;110147;1276;22324;-56
2024/04/10 09:54:38;;;;;;;5.30;3.80;;;;;;;25.76;34.92;101923.20;110273;1275;22848;-56
2024/04/10 09:57:08;;;;;;;4.10;3.60;;;;;;;25.77;34.79;101921.89;110299;1278;22760;-56
2024/04/10 09:59:35;;;;;;;5.90;3.80;;;;;;;25.79;34.76;101919.25;110104;1274;23140;-56
2024/04/10 10:02:18;;;;;;;7.20;4.00;;;;;;;25.83;34.97;101919.19;110533;1274;22645;-56
2024/04/10 10:04:46;;;;;;;4.30;3.90;;;;;;;25.86;35.49;101918.82;110563;1272;23010;-56
2024/04/10 10:07:23;;;;;;;8.10;3.80;;;;;;;25.90;35.89;101913.38;110562;1274;23030;-56
2024/04/10 10:10:03;;;;;;;4.20;3.30;;;;;;;25.94;35.92;101920.80;110580;1274;22481;-56
2024/04/10 10:12:30;;;;;;;7.10;3.60;;;;;;;25.97;35.94;101917.57;110593;1267;23137;-56
2024/04/10 10:15:10;;;;;;;8.40;3.40;;;;;;;26.00;35.97;101919.33;110589;1271;22176;-56
2024/04/10 10:17:37;;;;;;;3.70;3.00;;;;;;;26.04;35.96;101920.29;110416;1274;22176;-56
2024/04/10 10:20:23;;;;;;;5.40;3.80;;;;;;;26.07;36.37;101922.02;110410;1274;22268;-56
2024/04/10 10:23:20;;;;;;;6.50;3.80;;;;;;;26.10;36.08;101920.41;110573;1267;22290;-56
2024/04/10 10:25:50;;;;;;;3.90;3.20;;;;;;;26.13;36.13;101916.49;109919;1282;22485;-56
2024/04/10 10:28:17;;;;;;;6.10;3.30;;;;;;;26.14;35.76;101914.44;109932;1282;23236;-56
2024/04/10 10:30:46;;;;;;;4.70;2.80;;;;;;;26.13;35.77;101916.98;109987;1275;22206;-56
2024/04/10 10:33:13;;;;;;;3.40;3.10;;;;;;;26.11;35.34;101913.24;109979;1277;22802;-56
2024/04/10 10:35:40;;;;;;;6.00;3.20;;;;;;;26.10;35.12;101916.32;109879;1282;22169;-56
2024/04/10 10:38:08;;;;;;;3.60;3.20;;;;;;;26.11;35.25;101915.38;109955;1279;22304;-56
2024/04/10 10:40:35;;;;;;;4.90;3.30;;;;;;;26.12;35.20;101916.17;109962;1282;22239;-56
2024/04/10 10:43:03;;;;;;;4.20;2.80;;;;;;;26.15;34.89;101916.86;109983;1281;22586;-56
2024/04/10 10:45:34;;;;;;;4.10;2.90;;;;;;;26.21;35.00;101913.94;109964;1276;22140;-56
2024/04/10 10:48:03;;;;;;;4.40;3.30;;;;;;;26.22;35.02;101915.63;109955;1282;22277;-56
2024/04/10 10:50:30;;;;;;;6.60;3.60;;;;;;;26.19;35.18;101918.55;109986;1282;22514;-56
2024/04/10 10:53:00;;;;;;;7.90;3.10;;;;;;;26.22;35.29;101916.76;109937;1275;22156;-56
2024/04/10 10:55:27;;;;;;;4.50;3.40;;;;;;;26.26;35.14;101915.73;109887;1279;22433;-57
2024/04/10 10:58:03;;;;;;;4.50;2.90;;;;;;;26.33;35.03;101914.38;109657;1267;374041;-56
2024/04/10 11:00:31;;;;;;;5.10;3.20;;;;;;;26.39;35.35;101919.79;110008;1275;23122;-56
2024/04/10 11:03:08;;;;;;;3.40;3.10;;;;;;;26.44;35.88;101918.40;110330;1267;22568;-56
2024/04/10 11:05:50;;;;;;;;;;;;;;;26.51;35.90;101918.97;110545;1267;23251;-56
2024/04/10 11:08:23;;;;;;;3.60;2.60;;;;;;;26.56;35.72;101915.04;110522;1274;22390;-56
2024/04/10 11:10:51;;;;;;;2.70;2.20;;;;;;;26.60;35.59;101919.34;110527;1274;22395;-56
2024/04/10 11:13:18;;;;;;;3.80;2.60;;;;;;;26.66;35.28;101916.48;110538;1267;22506;-56
2024/04/10 11:15:46;;;;;;;9.30;2.90;;;;;;;26.70;35.17;101918.69;110559;1274;22331;-56
2024/04/10 11:18:15;;;;;;;3.90;3.20;;;;;;;26.74;35.33;101917.90;110546;1274;22348;-56
2024/04/10 11:20:42;;;;;;;4.20;2.70;;;;;;;26.78;35.28;101920.06;110571;1274;23227;-56
2024/04/10 11:23:09;;;;;;;3.50;2.80;;;;;;;26.82;35.34;101919.80;110559;1267;22379;-56
2024/04/10 11:25:38;;;;;;;3.10;2.50;;;;;;;26.85;35.44;101916.57;110513;1274;22221;-56